Meath Environmental Platform

Observations for Trim Patrick St

Time AQI Temp °C Hum % Pres Pa CO μg/m³ H₂S μg/m³ NO μg/m³ NO₂ μg/m³ O₃ μg/m³ SO₂ μg/m³ PM1 μg/m³ PM2.5 μg/m³ PM10 μg/m³
Saturday 1 August 2026
22:01 3 18.4 54 69,104 0 14.26 1.2 33.08 42.12 4.1 3.71 8.41 9.25
22:00 3 18.4 54 69,078 0 15.05 1.23 37.24 38.08 4.22 2.86 7.7 8.47
21:59 3 18.5 54 69,076 0 14.4 1.11 35.55 40.96 4.68 3.71 8.43 9.28
21:58 3 18.5 54 69,039 0 14.03 1.2 34.44 40.28 4.26 4.57 9.19 10.11
21:57 3 18.5 54 69,023 0 14.24 1.14 34.08 40.83 4.79 5.43 10.71 11.78
21:56 3 18.6 54 68,999 0 14.92 1.19 32.97 44.72 4.89 2.86 8.44 9.28
21:55 3 18.6 54 69,001 0 14.53 1.2 38.67 37.83 4.73 4.57 9.2 10.12
21:54 3 18.6 54 68,971 0 14.66 1.24 38.29 42.19 4.59 3.71 9.22 10.14
21:53 3 18.7 53 68,961 0 14.53 1.19 30.38 46.97 4.78 3.71 8.47 9.31
21:52 3 18.7 53 68,951 0 15.18 1.23 35.88 43.35 4.78 2.86 7.72 8.5
21:51 3 18.7 53 68,934 0 14.5 1.2 35.52 42.33 4.97 3.71 8.5 9.35
21:50 3 18.7 53 68,912 0 14.82 1.14 28.19 48.36 4.78 2.86 8.5 9.34
21:49 3 18.8 53 68,910 0 15.21 1.16 32.84 48.8 4.85 4.57 9.25 10.17
21:48 3 18.8 53 68,908 0 15.53 1.13 33.91 48.42 5.18 4.57 9.25 10.18
21:47 3 18.8 53 68,910 0 15.45 1.15 38.21 42.7 4.63 4.57 9.26 10.19
21:46 3 18.9 53 68,908 0 15.29 1.13 34.58 46.68 4.98 3.71 9.27 10.19
21:45 3 18.9 53 68,878 0 15.32 1.08 33.49 47.76 5.07 5.43 10.8 11.88
21:44 3 18.9 53 68,896 0 15.55 1.15 31.34 48.99 5.39 3.71 9.28 10.21
21:43 3 19 52 68,896 0 16.03 1.13 33.43 48.41 5.17 2.86 7.77 8.55
21:42 3 19 52 68,892 0 16.42 1.07 42.89 45.36 5.65 3.71 9.31 10.24